sensor_id;sensor_type;location;lat;lon;timestamp;pressure;altitude;pressure_sealevel;temperature;humidity
61524;BME280;47393;38.758;-9.164;2022-08-04T00:00:06;100286.38;;;18.44;99.95
61524;BME280;47393;38.758;-9.164;2022-08-04T00:02:12;100290.50;;;18.47;100.00
61524;BME280;47393;38.758;-9.164;2022-08-04T00:04:21;100293.81;;;18.49;99.71
61524;BME280;47393;38.758;-9.164;2022-08-04T00:07:02;100287.50;;;18.50;99.73
61524;BME280;47393;38.758;-9.164;2022-08-04T00:08:56;100284.09;;;18.56;99.35
61524;BME280;47393;38.758;-9.164;2022-08-04T00:11:02;100291.28;;;18.56;99.22
61524;BME280;47393;38.758;-9.164;2022-08-04T00:13:03;100284.09;;;18.56;99.13
61524;BME280;47393;38.758;-9.164;2022-08-04T00:15:04;100285.78;;;18.57;99.08
61524;BME280;47393;38.758;-9.164;2022-08-04T00:17:06;100280.63;;;18.56;99.21
61524;BME280;47393;38.758;-9.164;2022-08-04T00:19:19;100284.47;;;18.53;99.06
61524;BME280;47393;38.758;-9.164;2022-08-04T00:21:24;100283.47;;;18.54;99.60
61524;BME280;47393;38.758;-9.164;2022-08-04T00:23:25;100285.28;;;18.54;99.43
61524;BME280;47393;38.758;-9.164;2022-08-04T00:25:26;100277.28;;;18.54;99.21
61524;BME280;47393;38.758;-9.164;2022-08-04T00:27:28;100266.47;;;18.55;99.32
61524;BME280;47393;38.758;-9.164;2022-08-04T00:29:28;100277.97;;;18.56;99.38
61524;BME280;47393;38.758;-9.164;2022-08-04T00:31:30;100272.81;;;18.54;99.08
61524;BME280;47393;38.758;-9.164;2022-08-04T00:33:31;100264.34;;;18.50;99.40
61524;BME280;47393;38.758;-9.164;2022-08-04T00:35:31;100264.88;;;18.46;99.12
61524;BME280;47393;38.758;-9.164;2022-08-04T00:37:32;100251.94;;;18.43;99.42
61524;BME280;47393;38.758;-9.164;2022-08-04T00:39:33;100251.63;;;18.38;99.49
61524;BME280;47393;38.758;-9.164;2022-08-04T00:50:18;100245.53;;;18.29;99.87
61524;BME280;47393;38.758;-9.164;2022-08-04T00:52:27;100235.38;;;18.32;99.68
61524;BME280;47393;38.758;-9.164;2022-08-04T00:56:54;100235.47;;;18.39;99.33
61524;BME280;47393;38.758;-9.164;2022-08-04T00:59:08;100228.34;;;18.40;99.65
61524;BME280;47393;38.758;-9.164;2022-08-04T01:16:47;100226.59;;;18.47;99.58
61524;BME280;47393;38.758;-9.164;2022-08-04T01:21:01;100209.78;;;18.46;99.92
61524;BME280;47393;38.758;-9.164;2022-08-04T01:27:35;100215.78;;;18.48;100.00
61524;BME280;47393;38.758;-9.164;2022-08-04T01:29:49;100214.28;;;18.46;100.00
61524;BME280;47393;38.758;-9.164;2022-08-04T01:34:03;100206.28;;;18.46;100.00
61524;BME280;47393;38.758;-9.164;2022-08-04T01:36:05;100203.81;;;18.44;100.00
61524;BME280;47393;38.758;-9.164;2022-08-04T01:40:07;100200.59;;;18.49;100.00
61524;BME280;47393;38.758;-9.164;2022-08-04T01:42:08;100205.19;;;18.55;100.00
61524;BME280;47393;38.758;-9.164;2022-08-04T01:44:09;100186.56;;;18.55;100.00
61524;BME280;47393;38.758;-9.164;2022-08-04T01:46:12;100186.75;;;18.54;100.00
61524;BME280;47393;38.758;-9.164;2022-08-04T01:48:13;100189.41;;;18.54;100.00
61524;BME280;47393;38.758;-9.164;2022-08-04T01:50:15;100187.41;;;18.56;100.00
61524;BME280;47393;38.758;-9.164;2022-08-04T01:52:16;100202.34;;;18.57;100.00
61524;BME280;47393;38.758;-9.164;2022-08-04T01:54:17;100204.19;;;18.56;100.00
61524;BME280;47393;38.758;-9.164;2022-08-04T01:56:18;100196.22;;;18.56;100.00
61524;BME280;47393;38.758;-9.164;2022-08-04T01:58:18;100197.22;;;18.55;100.00
61524;BME280;47393;38.758;-9.164;2022-08-04T02:00:20;100198.06;;;18.56;100.00
61524;BME280;47393;38.758;-9.164;2022-08-04T02:02:21;100190.50;;;18.59;100.00
61524;BME280;47393;38.758;-9.164;2022-08-04T02:04:22;100196.31;;;18.63;100.00
61524;BME280;47393;38.758;-9.164;2022-08-04T02:06:37;100194.84;;;18.60;100.00
61524;BME280;47393;38.758;-9.164;2022-08-04T02:10:52;100176.75;;;18.56;100.00
61524;BME280;47393;38.758;-9.164;2022-08-04T02:17:06;100193.19;;;18.59;100.00
61524;BME280;47393;38.758;-9.164;2022-08-04T02:21:19;100211.00;;;18.59;100.00
61524;BME280;47393;38.758;-9.164;2022-08-04T02:23:45;100218.16;;;18.58;100.00
61524;BME280;47393;38.758;-9.164;2022-08-04T02:25:48;100216.53;;;18.57;100.00
61524;BME280;47393;38.758;-9.164;2022-08-04T02:27:59;100219.00;;;18.59;100.00
61524;BME280;47393;38.758;-9.164;2022-08-04T02:30:03;100223.97;;;18.62;100.00
61524;BME280;47393;38.758;-9.164;2022-08-04T02:32:04;100217.81;;;18.61;100.00
61524;BME280;47393;38.758;-9.164;2022-08-04T02:34:07;100222.28;;;18.61;100.00
61524;BME280;47393;38.758;-9.164;2022-08-04T02:36:09;100219.19;;;18.57;100.00
61524;BME280;47393;38.758;-9.164;2022-08-04T02:38:11;100219.97;;;18.43;100.00
61524;BME280;47393;38.758;-9.164;2022-08-04T02:40:17;100220.06;;;18.49;100.00
61524;BME280;47393;38.758;-9.164;2022-08-04T02:42:19;100224.38;;;18.50;100.00
61524;BME280;47393;38.758;-9.164;2022-08-04T02:44:21;100231.66;;;18.57;100.00
61524;BME280;47393;38.758;-9.164;2022-08-04T02:46:22;100232.31;;;18.59;100.00
61524;BME280;47393;38.758;-9.164;2022-08-04T02:48:23;100225.13;;;18.59;100.00
61524;BME280;47393;38.758;-9.164;2022-08-04T02:50:24;100224.50;;;18.57;100.00
61524;BME280;47393;38.758;-9.164;2022-08-04T02:52:25;100228.34;;;18.55;100.00
61524;BME280;47393;38.758;-9.164;2022-08-04T02:54:27;100221.72;;;18.50;100.00
61524;BME280;47393;38.758;-9.164;2022-08-04T02:56:31;100228.91;;;18.50;100.00
61524;BME280;47393;38.758;-9.164;2022-08-04T02:58:33;100221.53;;;18.52;100.00
61524;BME280;47393;38.758;-9.164;2022-08-04T03:00:33;100227.16;;;18.57;100.00
61524;BME280;47393;38.758;-9.164;2022-08-04T03:02:53;100229.16;;;18.55;100.00
61524;BME280;47393;38.758;-9.164;2022-08-04T03:05:02;100232.19;;;18.52;100.00
61524;BME280;47393;38.758;-9.164;2022-08-04T03:07:13;100222.72;;;18.49;100.00
61524;BME280;47393;38.758;-9.164;2022-08-04T03:24:40;100213.81;;;18.42;100.00
61524;BME280;47393;38.758;-9.164;2022-08-04T03:45:21;100201.16;;;18.44;100.00
61524;BME280;47393;38.758;-9.164;2022-08-04T03:51:33;100197.38;;;18.39;100.00
61524;BME280;47393;38.758;-9.164;2022-08-04T03:54:00;100198.19;;;18.39;100.00
61524;BME280;47393;38.758;-9.164;2022-08-04T03:56:13;100199.31;;;18.45;100.00
61524;BME280;47393;38.758;-9.164;2022-08-04T03:58:31;100204.00;;;18.43;100.00
61524;BME280;47393;38.758;-9.164;2022-08-04T04:00:51;100208.28;;;18.44;100.00
61524;BME280;47393;38.758;-9.164;2022-08-04T04:03:00;100207.13;;;18.46;100.00
61524;BME280;47393;38.758;-9.164;2022-08-04T04:14:21;100190.50;;;18.44;100.00
61524;BME280;47393;38.758;-9.164;2022-08-04T04:26:00;100204.00;;;18.43;100.00
61524;BME280;47393;38.758;-9.164;2022-08-04T04:38:41;100205.63;;;18.44;100.00
61524;BME280;47393;38.758;-9.164;2022-08-04T04:43:10;100213.63;;;18.44;100.00
61524;BME280;47393;38.758;-9.164;2022-08-04T04:49:56;100210.63;;;18.47;100.00
61524;BME280;47393;38.758;-9.164;2022-08-04T04:52:04;100218.63;;;18.47;100.00
61524;BME280;47393;38.758;-9.164;2022-08-04T04:56:29;100207.78;;;18.48;100.00
61524;BME280;47393;38.758;-9.164;2022-08-04T04:58:34;100214.28;;;18.46;99.98
61524;BME280;47393;38.758;-9.164;2022-08-04T05:02:58;100223.28;;;18.45;100.00
61524;BME280;47393;38.758;-9.164;2022-08-04T05:05:14;100222.53;;;18.51;100.00
61524;BME280;47393;38.758;-9.164;2022-08-04T05:09:31;100225.13;;;18.59;99.68
61524;BME280;47393;38.758;-9.164;2022-08-04T05:13:56;100223.13;;;18.61;99.06
61524;BME280;47393;38.758;-9.164;2022-08-04T05:16:03;100227.00;;;18.59;99.07
61524;BME280;47393;38.758;-9.164;2022-08-04T05:18:05;100233.50;;;18.56;98.86
61524;BME280;47393;38.758;-9.164;2022-08-04T05:22:09;100238.25;;;18.46;99.58
61524;BME280;47393;38.758;-9.164;2022-08-04T05:24:13;100240.38;;;18.50;99.37
61524;BME280;47393;38.758;-9.164;2022-08-04T05:26:17;100240.00;;;18.54;99.21
61524;BME280;47393;38.758;-9.164;2022-08-04T05:28:23;100247.81;;;18.55;98.92
61524;BME280;47393;38.758;-9.164;2022-08-04T05:30:24;100238.28;;;18.61;98.61
61524;BME280;47393;38.758;-9.164;2022-08-04T05:32:28;100234.13;;;18.58;98.49
61524;BME280;47393;38.758;-9.164;2022-08-04T05:34:31;100240.50;;;18.57;98.18
61524;BME280;47393;38.758;-9.164;2022-08-04T05:36:37;100241.66;;;18.55;98.19
61524;BME280;47393;38.758;-9.164;2022-08-04T05:38:39;100235.22;;;18.49;98.31
61524;BME280;47393;38.758;-9.164;2022-08-04T05:40:42;100242.22;;;18.50;98.11
61524;BME280;47393;38.758;-9.164;2022-08-04T05:42:43;100236.97;;;18.57;98.34
61524;BME280;47393;38.758;-9.164;2022-08-04T05:44:43;100242.13;;;18.58;98.15
61524;BME280;47393;38.758;-9.164;2022-08-04T05:46:45;100243.16;;;18.57;97.95
61524;BME280;47393;38.758;-9.164;2022-08-04T05:48:46;100241.31;;;18.58;97.59
61524;BME280;47393;38.758;-9.164;2022-08-04T05:50:48;100237.47;;;18.60;97.80
61524;BME280;47393;38.758;-9.164;2022-08-04T05:52:49;100241.13;;;18.59;97.75
61524;BME280;47393;38.758;-9.164;2022-08-04T05:54:51;100236.53;;;18.53;98.10
61524;BME280;47393;38.758;-9.164;2022-08-04T05:56:52;100230.38;;;18.53;98.14
61524;BME280;47393;38.758;-9.164;2022-08-04T05:58:53;100241.19;;;18.51;98.75
61524;BME280;47393;38.758;-9.164;2022-08-04T06:00:54;100242.84;;;18.52;98.56
61524;BME280;47393;38.758;-9.164;2022-08-04T06:02:55;100239.38;;;18.52;98.66
61524;BME280;47393;38.758;-9.164;2022-08-04T06:04:57;100238.19;;;18.54;98.74
61524;BME280;47393;38.758;-9.164;2022-08-04T06:06:59;100237.81;;;18.57;98.57
61524;BME280;47393;38.758;-9.164;2022-08-04T06:09:00;100234.97;;;18.59;98.42
61524;BME280;47393;38.758;-9.164;2022-08-04T06:11:02;100237.34;;;18.54;98.75
61524;BME280;47393;38.758;-9.164;2022-08-04T06:13:09;100232.56;;;18.49;99.12
61524;BME280;47393;38.758;-9.164;2022-08-04T06:15:11;100237.72;;;18.50;99.30
61524;BME280;47393;38.758;-9.164;2022-08-04T06:17:14;100242.31;;;18.57;98.92
61524;BME280;47393;38.758;-9.164;2022-08-04T06:19:19;100233.25;;;18.66;98.61
61524;BME280;47393;38.758;-9.164;2022-08-04T06:21:21;100239.69;;;18.72;98.05
61524;BME280;47393;38.758;-9.164;2022-08-04T06:23:22;100243.91;;;18.66;98.20
61524;BME280;47393;38.758;-9.164;2022-08-04T06:25:28;100244.91;;;18.65;98.01
61524;BME280;47393;38.758;-9.164;2022-08-04T06:27:30;100246.38;;;18.67;97.79
61524;BME280;47393;38.758;-9.164;2022-08-04T06:29:32;100248.97;;;18.76;97.85
61524;BME280;47393;38.758;-9.164;2022-08-04T06:31:34;100253.19;;;18.70;98.00
61524;BME280;47393;38.758;-9.164;2022-08-04T06:33:50;100256.84;;;18.69;97.69
61524;BME280;47393;38.758;-9.164;2022-08-04T06:35:51;100258.53;;;18.70;97.99
61524;BME280;47393;38.758;-9.164;2022-08-04T06:37:53;100255.50;;;18.73;97.57
61524;BME280;47393;38.758;-9.164;2022-08-04T06:39:57;100262.19;;;18.69;97.64
61524;BME280;47393;38.758;-9.164;2022-08-04T06:41:57;100264.22;;;18.67;97.96
61524;BME280;47393;38.758;-9.164;2022-08-04T06:43:58;100261.81;;;18.72;97.67
61524;BME280;47393;38.758;-9.164;2022-08-04T06:46:00;100270.47;;;18.74;97.69
61524;BME280;47393;38.758;-9.164;2022-08-04T06:48:02;100270.66;;;18.73;97.59
61524;BME280;47393;38.758;-9.164;2022-08-04T06:50:03;100271.09;;;18.76;97.43
61524;BME280;47393;38.758;-9.164;2022-08-04T06:52:04;100274.06;;;18.81;97.21
61524;BME280;47393;38.758;-9.164;2022-08-04T06:54:05;100270.84;;;18.86;96.75
61524;BME280;47393;38.758;-9.164;2022-08-04T06:56:06;100274.97;;;18.74;97.05
61524;BME280;47393;38.758;-9.164;2022-08-04T06:58:07;100276.56;;;18.83;96.68
61524;BME280;47393;38.758;-9.164;2022-08-04T07:00:09;100279.22;;;18.83;96.61
61524;BME280;47393;38.758;-9.164;2022-08-04T07:02:13;100273.66;;;18.93;96.16
61524;BME280;47393;38.758;-9.164;2022-08-04T07:04:14;100284.59;;;18.98;95.45
61524;BME280;47393;38.758;-9.164;2022-08-04T07:06:15;100287.38;;;19.05;95.07
61524;BME280;47393;38.758;-9.164;2022-08-04T07:08:16;100286.06;;;19.00;94.90
61524;BME280;47393;38.758;-9.164;2022-08-04T07:10:17;100292.22;;;19.01;94.40
61524;BME280;47393;38.758;-9.164;2022-08-04T07:12:17;100289.28;;;18.96;95.11
61524;BME280;47393;38.758;-9.164;2022-08-04T07:14:22;100289.28;;;18.96;95.25
61524;BME280;47393;38.758;-9.164;2022-08-04T07:16:23;100295.25;;;18.98;94.66
61524;BME280;47393;38.758;-9.164;2022-08-04T07:18:24;100294.69;;;19.02;94.79
61524;BME280;47393;38.758;-9.164;2022-08-04T07:20:25;100300.03;;;19.02;94.45
61524;BME280;47393;38.758;-9.164;2022-08-04T07:22:27;100292.97;;;19.10;93.72
61524;BME280;47393;38.758;-9.164;2022-08-04T07:24:32;100290.59;;;19.15;93.65
61524;BME280;47393;38.758;-9.164;2022-08-04T07:26:33;100308.59;;;19.28;93.19
61524;BME280;47393;38.758;-9.164;2022-08-04T07:28:34;100295.75;;;19.31;92.52
61524;BME280;47393;38.758;-9.164;2022-08-04T07:30:35;100293.72;;;19.33;92.18
61524;BME280;47393;38.758;-9.164;2022-08-04T07:32:36;100301.06;;;19.46;91.50
61524;BME280;47393;38.758;-9.164;2022-08-04T07:34:37;100305.50;;;19.39;91.60
61524;BME280;47393;38.758;-9.164;2022-08-04T07:36:38;100309.34;;;19.51;90.93
61524;BME280;47393;38.758;-9.164;2022-08-04T07:38:39;100314.84;;;19.65;90.17
61524;BME280;47393;38.758;-9.164;2022-08-04T07:40:43;100313.38;;;19.62;89.72
61524;BME280;47393;38.758;-9.164;2022-08-04T07:42:44;100307.94;;;19.70;89.27
61524;BME280;47393;38.758;-9.164;2022-08-04T07:44:45;100311.91;;;19.90;88.42
61524;BME280;47393;38.758;-9.164;2022-08-04T07:46:46;100310.59;;;20.00;87.80
61524;BME280;47393;38.758;-9.164;2022-08-04T07:48:52;100319.44;;;20.01;86.90
61524;BME280;47393;38.758;-9.164;2022-08-04T07:50:55;100324.97;;;19.69;89.32
61524;BME280;47393;38.758;-9.164;2022-08-04T07:52:56;100319.91;;;19.75;89.01
61524;BME280;47393;38.758;-9.164;2022-08-04T07:54:57;100327.47;;;19.86;88.28
61524;BME280;47393;38.758;-9.164;2022-08-04T07:56:58;100326.16;;;19.97;87.26
61524;BME280;47393;38.758;-9.164;2022-08-04T07:59:03;100323.47;;;19.97;87.15
61524;BME280;47393;38.758;-9.164;2022-08-04T08:01:03;100327.38;;;20.16;86.44
61524;BME280;47393;38.758;-9.164;2022-08-04T08:03:06;100333.00;;;19.84;87.34
61524;BME280;47393;38.758;-9.164;2022-08-04T08:05:09;100333.78;;;20.00;87.04
61524;BME280;47393;38.758;-9.164;2022-08-04T08:07:10;100343.09;;;19.59;88.48
61524;BME280;47393;38.758;-9.164;2022-08-04T08:09:12;100332.22;;;19.76;88.31
61524;BME280;47393;38.758;-9.164;2022-08-04T08:11:13;100337.00;;;19.95;87.57
61524;BME280;47393;38.758;-9.164;2022-08-04T08:13:14;100334.44;;;19.87;87.23
61524;BME280;47393;38.758;-9.164;2022-08-04T08:15:14;100348.69;;;19.94;87.01
61524;BME280;47393;38.758;-9.164;2022-08-04T08:17:15;100340.22;;;20.05;86.71
61524;BME280;47393;38.758;-9.164;2022-08-04T08:19:16;100335.03;;;20.19;86.18
61524;BME280;47393;38.758;-9.164;2022-08-04T08:21:20;100331.00;;;20.45;84.46
61524;BME280;47393;38.758;-9.164;2022-08-04T08:23:21;100344.47;;;20.58;83.46
61524;BME280;47393;38.758;-9.164;2022-08-04T08:25:21;100338.75;;;20.61;83.44
61524;BME280;47393;38.758;-9.164;2022-08-04T08:27:22;100339.94;;;20.58;83.39
61524;BME280;47393;38.758;-9.164;2022-08-04T08:29:23;100335.78;;;20.34;84.57
61524;BME280;47393;38.758;-9.164;2022-08-04T08:31:24;100351.34;;;20.09;85.57
61524;BME280;47393;38.758;-9.164;2022-08-04T08:33:25;100342.78;;;20.14;86.12
61524;BME280;47393;38.758;-9.164;2022-08-04T08:35:25;100348.31;;;20.12;86.37
61524;BME280;47393;38.758;-9.164;2022-08-04T08:37:34;100350.88;;;20.20;85.97
61524;BME280;47393;38.758;-9.164;2022-08-04T08:39:37;100346.88;;;20.31;85.24
61524;BME280;47393;38.758;-9.164;2022-08-04T08:41:45;100343.19;;;20.32;85.60
61524;BME280;47393;38.758;-9.164;2022-08-04T08:57:11;100346.63;;;20.91;81.88
61524;BME280;47393;38.758;-9.164;2022-08-04T09:03:28;100353.44;;;21.22;80.65
61524;BME280;47393;38.758;-9.164;2022-08-04T09:05:56;100352.03;;;21.26;80.08
61524;BME280;47393;38.758;-9.164;2022-08-04T09:12:24;100367.13;;;21.62;78.09
61524;BME280;47393;38.758;-9.164;2022-08-04T09:16:46;100366.13;;;21.70;78.02
61524;BME280;47393;38.758;-9.164;2022-08-04T09:20:55;100367.03;;;21.90;77.32
61524;BME280;47393;38.758;-9.164;2022-08-04T09:27:23;100371.22;;;22.06;75.96
61524;BME280;47393;38.758;-9.164;2022-08-04T09:31:42;100372.31;;;22.25;75.76
61524;BME280;47393;38.758;-9.164;2022-08-04T09:33:49;100374.47;;;22.50;74.33
61524;BME280;47393;38.758;-9.164;2022-08-04T09:36:00;100367.44;;;22.36;74.44
61524;BME280;47393;38.758;-9.164;2022-08-04T09:40:42;100370.56;;;22.53;73.56
61524;BME280;47393;38.758;-9.164;2022-08-04T09:44:57;100372.66;;;22.77;72.40
61524;BME280;47393;38.758;-9.164;2022-08-04T09:49:17;100374.28;;;23.05;71.42
61524;BME280;47393;38.758;-9.164;2022-08-04T09:51:33;100379.84;;;22.84;72.11
61524;BME280;47393;38.758;-9.164;2022-08-04T09:53:48;100375.94;;;22.73;72.41
61524;BME280;47393;38.758;-9.164;2022-08-04T10:00:15;100379.16;;;23.75;68.76
61524;BME280;47393;38.758;-9.164;2022-08-04T10:02:17;100377.41;;;24.14;67.52
61524;BME280;47393;38.758;-9.164;2022-08-04T10:04:21;100374.94;;;24.45;65.32
61524;BME280;47393;38.758;-9.164;2022-08-04T10:08:51;100379.34;;;24.32;65.23
61524;BME280;47393;38.758;-9.164;2022-08-04T10:15:18;100389.19;;;24.07;66.23
61524;BME280;47393;38.758;-9.164;2022-08-04T10:19:37;100389.50;;;23.72;67.78
61524;BME280;47393;38.758;-9.164;2022-08-04T10:21:56;100391.13;;;23.79;67.56
61524;BME280;47393;38.758;-9.164;2022-08-04T10:24:20;100381.34;;;24.05;66.76
61524;BME280;47393;38.758;-9.164;2022-08-04T10:28:27;100390.25;;;24.06;66.38
61524;BME280;47393;38.758;-9.164;2022-08-04T10:30:29;100387.06;;;24.22;66.30
61524;BME280;47393;38.758;-9.164;2022-08-04T10:32:43;100391.34;;;24.30;65.62
61524;BME280;47393;38.758;-9.164;2022-08-04T10:37:00;100384.22;;;24.10;66.67
61524;BME280;47393;38.758;-9.164;2022-08-04T10:39:17;100386.41;;;24.65;64.86
61524;BME280;47393;38.758;-9.164;2022-08-04T10:45:24;100386.91;;;24.10;66.00
61524;BME280;47393;38.758;-9.164;2022-08-04T10:47:29;100388.06;;;23.62;68.10
61524;BME280;47393;38.758;-9.164;2022-08-04T10:49:42;100383.47;;;24.35;65.63
61524;BME280;47393;38.758;-9.164;2022-08-04T10:52:07;100394.31;;;24.92;64.19
61524;BME280;47393;38.758;-9.164;2022-08-04T10:54:06;100398.19;;;25.47;61.63
61524;BME280;47393;38.758;-9.164;2022-08-04T10:56:09;100393.63;;;25.66;61.02
61524;BME280;47393;38.758;-9.164;2022-08-04T10:58:14;100396.47;;;25.52;61.23
61524;BME280;47393;38.758;-9.164;2022-08-04T11:00:22;100396.81;;;24.87;63.05
61524;BME280;47393;38.758;-9.164;2022-08-04T11:05:13;100392.13;;;25.51;61.27
61524;BME280;47393;38.758;-9.164;2022-08-04T11:07:16;100403.34;;;26.22;58.61
61524;BME280;47393;38.758;-9.164;2022-08-04T11:09:17;100393.22;;;26.36;58.16
61524;BME280;47393;38.758;-9.164;2022-08-04T11:11:32;100399.53;;;26.42;58.15
61524;BME280;47393;38.758;-9.164;2022-08-04T11:13:43;100402.50;;;26.22;58.28
61524;BME280;47393;38.758;-9.164;2022-08-04T11:15:51;100387.03;;;25.99;58.88
61524;BME280;47393;38.758;-9.164;2022-08-04T11:17:56;100391.84;;;25.78;59.81
61524;BME280;47393;38.758;-9.164;2022-08-04T11:20:01;100392.94;;;25.89;59.36
61524;BME280;47393;38.758;-9.164;2022-08-04T11:22:10;100396.19;;;26.47;58.26
61524;BME280;47393;38.758;-9.164;2022-08-04T11:24:24;100389.50;;;26.91;56.93
61524;BME280;47393;38.758;-9.164;2022-08-04T11:26:36;100395.88;;;26.67;57.33
61524;BME280;47393;38.758;-9.164;2022-08-04T11:31:24;100392.69;;;26.28;58.19
61524;BME280;47393;38.758;-9.164;2022-08-04T11:33:30;100381.75;;;26.11;58.82
61524;BME280;47393;38.758;-9.164;2022-08-04T11:35:37;100386.16;;;26.66;57.77
61524;BME280;47393;38.758;-9.164;2022-08-04T11:37:44;100381.69;;;26.59;57.02
61524;BME280;47393;38.758;-9.164;2022-08-04T11:41:47;100385.28;;;26.96;55.95
61524;BME280;47393;38.758;-9.164;2022-08-04T11:43:52;100393.09;;;26.73;56.82
61524;BME280;47393;38.758;-9.164;2022-08-04T11:45:58;100386.22;;;25.61;59.63
61524;BME280;47393;38.758;-9.164;2022-08-04T11:48:02;100387.75;;;26.24;58.62
61524;BME280;47393;38.758;-9.164;2022-08-04T11:50:08;100379.31;;;27.05;56.10
61524;BME280;47393;38.758;-9.164;2022-08-04T11:52:11;100382.00;;;26.93;55.64
61524;BME280;47393;38.758;-9.164;2022-08-04T11:54:16;100389.03;;;26.83;56.50
61524;BME280;47393;38.758;-9.164;2022-08-04T11:56:18;100388.91;;;26.47;57.44
61524;BME280;47393;38.758;-9.164;2022-08-04T11:58:19;100385.22;;;26.30;57.93
61524;BME280;47393;38.758;-9.164;2022-08-04T12:00:21;100385.88;;;27.33;54.90
61524;BME280;47393;38.758;-9.164;2022-08-04T12:04:36;100390.44;;;26.85;55.44
61524;BME280;47393;38.758;-9.164;2022-08-04T12:12:57;100383.72;;;26.03;58.65
61524;BME280;47393;38.758;-9.164;2022-08-04T12:17:15;100393.41;;;26.04;58.91
61524;BME280;47393;38.758;-9.164;2022-08-04T12:20:06;100383.69;;;25.48;60.52
61524;BME280;47393;38.758;-9.164;2022-08-04T12:21:44;100384.13;;;24.94;62.08
61524;BME280;47393;38.758;-9.164;2022-08-04T12:23:45;100383.06;;;25.46;60.53
61524;BME280;47393;38.758;-9.164;2022-08-04T12:25:47;100394.03;;;26.06;58.71
61524;BME280;47393;38.758;-9.164;2022-08-04T12:28:23;100381.78;;;26.53;57.16
61524;BME280;47393;38.758;-9.164;2022-08-04T12:30:17;100387.88;;;26.60;57.18
61524;BME280;47393;38.758;-9.164;2022-08-04T12:32:21;100384.44;;;26.95;55.74
61524;BME280;47393;38.758;-9.164;2022-08-04T12:38:41;100383.88;;;26.51;56.40
61524;BME280;47393;38.758;-9.164;2022-08-04T12:40:45;100389.06;;;26.64;57.41
61524;BME280;47393;38.758;-9.164;2022-08-04T12:45:19;100390.22;;;26.99;56.05
61524;BME280;47393;38.758;-9.164;2022-08-04T12:47:24;100384.94;;;26.50;56.91
61524;BME280;47393;38.758;-9.164;2022-08-04T12:49:26;100392.69;;;26.28;57.37
61524;BME280;47393;38.758;-9.164;2022-08-04T12:51:27;100387.50;;;25.77;59.36
61524;BME280;47393;38.758;-9.164;2022-08-04T12:53:31;100387.94;;;25.93;58.95
61524;BME280;47393;38.758;-9.164;2022-08-04T12:55:33;100390.13;;;26.21;58.21
61524;BME280;47393;38.758;-9.164;2022-08-04T12:57:34;100383.88;;;26.81;56.42
61524;BME280;47393;38.758;-9.164;2022-08-04T12:59:39;100381.50;;;26.73;56.45
61524;BME280;47393;38.758;-9.164;2022-08-04T13:01:44;100378.84;;;26.97;55.51
61524;BME280;47393;38.758;-9.164;2022-08-04T13:03:48;100383.81;;;27.35;54.76
61524;BME280;47393;38.758;-9.164;2022-08-04T13:05:51;100374.66;;;27.89;52.89
61524;BME280;47393;38.758;-9.164;2022-08-04T13:07:52;100386.34;;;28.18;52.18
61524;BME280;47393;38.758;-9.164;2022-08-04T13:09:54;100379.50;;;28.27;51.48
61524;BME280;47393;38.758;-9.164;2022-08-04T13:11:58;100381.72;;;28.76;49.91
61524;BME280;47393;38.758;-9.164;2022-08-04T13:14:00;100389.66;;;28.66;50.40
61524;BME280;47393;38.758;-9.164;2022-08-04T13:16:04;100384.34;;;28.13;51.85
61524;BME280;47393;38.758;-9.164;2022-08-04T13:18:09;100370.75;;;29.00;49.44
61524;BME280;47393;38.758;-9.164;2022-08-04T13:20:10;100374.97;;;29.13;48.58
61524;BME280;47393;38.758;-9.164;2022-08-04T13:22:11;100379.41;;;29.58;48.20
61524;BME280;47393;38.758;-9.164;2022-08-04T13:24:12;100371.53;;;30.83;45.71
61524;BME280;47393;38.758;-9.164;2022-08-04T13:26:14;100374.69;;;30.15;46.24
61524;BME280;47393;38.758;-9.164;2022-08-04T13:28:23;100378.03;;;29.78;47.18
61524;BME280;47393;38.758;-9.164;2022-08-04T13:30:24;100370.56;;;29.85;46.95
61524;BME280;47393;38.758;-9.164;2022-08-04T13:32:26;100378.28;;;29.54;47.48
61524;BME280;47393;38.758;-9.164;2022-08-04T13:34:28;100361.59;;;30.07;46.78
61524;BME280;47393;38.758;-9.164;2022-08-04T13:36:30;100362.81;;;29.94;46.41
61524;BME280;47393;38.758;-9.164;2022-08-04T13:38:31;100356.78;;;30.41;45.63
61524;BME280;47393;38.758;-9.164;2022-08-04T13:40:33;100366.38;;;31.19;43.86
61524;BME280;47393;38.758;-9.164;2022-08-04T13:42:34;100366.63;;;31.17;43.82
61524;BME280;47393;38.758;-9.164;2022-08-04T13:44:36;100355.75;;;31.60;42.84
61524;BME280;47393;38.758;-9.164;2022-08-04T13:46:39;100359.06;;;30.87;43.94
61524;BME280;47393;38.758;-9.164;2022-08-04T13:48:50;100359.69;;;30.62;44.86
61524;BME280;47393;38.758;-9.164;2022-08-04T13:51:00;100362.47;;;30.40;45.54
61524;BME280;47393;38.758;-9.164;2022-08-04T13:53:03;100355.31;;;29.00;48.28
61524;BME280;47393;38.758;-9.164;2022-08-04T13:55:08;100358.19;;;28.31;51.06
61524;BME280;47393;38.758;-9.164;2022-08-04T13:57:18;100351.25;;;29.59;47.71
61524;BME280;47393;38.758;-9.164;2022-08-04T13:59:23;100355.53;;;29.16;48.55
61524;BME280;47393;38.758;-9.164;2022-08-04T14:01:28;100349.94;;;28.55;50.26
61524;BME280;47393;38.758;-9.164;2022-08-04T14:03:38;100348.09;;;29.23;48.07
61524;BME280;47393;38.758;-9.164;2022-08-04T14:05:39;100353.88;;;30.20;45.80
61524;BME280;47393;38.758;-9.164;2022-08-04T14:07:41;100343.03;;;29.93;46.23
61524;BME280;47393;38.758;-9.164;2022-08-04T14:09:44;100345.88;;;30.09;46.03
61524;BME280;47393;38.758;-9.164;2022-08-04T14:11:49;100343.50;;;29.90;46.57
61524;BME280;47393;38.758;-9.164;2022-08-04T14:13:51;100342.47;;;29.13;48.16
61524;BME280;47393;38.758;-9.164;2022-08-04T14:15:52;100338.25;;;28.83;48.92
61524;BME280;47393;38.758;-9.164;2022-08-04T14:17:54;100338.25;;;28.83;48.83